メインページ
METAR-TAF:

METAR-TAF

空港 :

シアトル / タコマ, ワシントン, アメリカ合衆国

シアトル・タコマ国際空港

緯度: 47-26-41N, 経度: 122-18-49W, 海抜: 130m

現時点の気象観測

当レポートは1時間1分前の10:53(UTC)に作成
無風
気温 8°C
湿度 93%
気圧 1014 hPa
視程: 16.1km
高度5000ftの雲はほとんどない

METAR: KSEA 231053Z 00000KT 10SM FEW050 08/07 A2995 RMK AO2 SLP147 T00780067

時間: 04:54 (11:54 UTC)

予報

当レポートは17分前の11:37(UTC)に作成
予報は23日の 12時(UTC)から 24日の 18時(UTC)まで有効
の風 5kt
視程: 10km
高度2500ftの雲は散在している
高度4000ftの千切れ雲あり
近辺でにわか雨
23日の 1600時(UTC)から
南/南西の風 6kt
視程: 10km
高度1500ftの雲は散在している
高度2500ftの曇り
小雨
23日の 1900時(UTC)から
南/南西の風 9kt
視程: 9.7km
高度1200ftの雲は散在している
高度1800ftの千切れ雲あり
高度2500ftの曇り
小雨, 靄
24日の 0000時(UTC)から
南/南西の風 12kt、最大18ktの突風を伴う
視程: 10km
高度1800ftの雲は散在している
高度3000ftの千切れ雲あり
高度4500ftの曇り
弱いにわか雨
24日の 0900時(UTC)から
の風 6kt
視程: 10km
高度2500ftの雲は散在している
高度4000ftの千切れ雲あり
高度6000ftの曇り
近辺でにわか雨
24日の 1500時(UTC)から
北東の風 4kt
視程: 10km
高度2000ftの雲は散在している
高度6000ftの雲は散在している
高度12000ftの千切れ雲あり

TAF: KSEA 231137Z 2312/2418 18005KT P6SM VCSH SCT025 BKN040 FM231600 20006KT P6SM -RA SCT015 OVC025 FM231900 21009KT 6SM -RA BR SCT012 BKN018 OVC025 FM240000 21012G18KT P6SM -SHRA SCT018 BKN030 OVC045 FM240900 18006KT P6SM VCSH SCT025 BKN040 OVC060 FM241500 04004KT P6SM SCT020 SCT060 BKN120

4,000以上の空港の気象観測と天気予報(METAR報とTAF報)

利用可能な観測所は地図上に黄色い丸と赤い丸で示す。

丸の上にカーソルを重ねると観測所名を参照できる。

次にクリックすると気象観測と天気予報を参照できる。

マップの切り替え:黒色「×」印の緑ボタンをクリックして拡大、「-」印の緑ボタンをクリックして縮小、緑色の三角印をクリックして隣りの地図に切り替え


METAR-TAF: